sensor_id;sensor_type;location;lat;lon;timestamp;pressure;altitude;pressure_sealevel;temperature;humidity
13058;BME280;6595;49.578;11.012;2023-09-08T00:00:24;992.858;;;15.97;82.2
13058;BME280;6595;49.578;11.012;2023-09-08T00:02:24;992.772;;;15.94;82.3
13058;BME280;6595;49.578;11.012;2023-09-08T00:04:23;992.805;;;15.93;82.4
13058;BME280;6595;49.578;11.012;2023-09-08T00:06:23;992.822;;;15.93;82.5
13058;BME280;6595;49.578;11.012;2023-09-08T00:08:23;992.802;;;15.87;82.7
13058;BME280;6595;49.578;11.012;2023-09-08T00:10:24;992.737;;;15.83;82.7
13058;BME280;6595;49.578;11.012;2023-09-08T00:12:24;992.727;;;15.80;82.8
13058;BME280;6595;49.578;11.012;2023-09-08T00:14:24;992.765;;;15.80;82.6
13058;BME280;6595;49.578;11.012;2023-09-08T00:16:23;992.772;;;15.77;82.9
13058;BME280;6595;49.578;11.012;2023-09-08T00:18:24;992.762;;;15.77;82.6
13058;BME280;6595;49.578;11.012;2023-09-08T00:20:24;992.771;;;15.77;82.7
13058;BME280;6595;49.578;11.012;2023-09-08T00:22:24;992.778;;;15.73;82.3
13058;BME280;6595;49.578;11.012;2023-09-08T00:24:23;992.778;;;15.73;82.3
13058;BME280;6595;49.578;11.012;2023-09-08T00:26:24;992.740;;;15.66;82.4
13058;BME280;6595;49.578;11.012;2023-09-08T00:28:24;992.750;;;15.64;82.5
13058;BME280;6595;49.578;11.012;2023-09-08T00:30:24;992.726;;;15.59;82.6
13058;BME280;6595;49.578;11.012;2023-09-08T00:32:24;992.772;;;15.59;82.5
13058;BME280;6595;49.578;11.012;2023-09-08T00:34:23;992.774;;;15.62;82.7
13058;BME280;6595;49.578;11.012;2023-09-08T00:36:23;992.732;;;15.60;82.7
13058;BME280;6595;49.578;11.012;2023-09-08T00:38:24;992.791;;;15.50;83.0
13058;BME280;6595;49.578;11.012;2023-09-08T00:40:23;992.732;;;15.47;83.0
13058;BME280;6595;49.578;11.012;2023-09-08T00:42:23;992.743;;;15.41;83.1
13058;BME280;6595;49.578;11.012;2023-09-08T00:44:23;992.811;;;15.43;83.2
13058;BME280;6595;49.578;11.012;2023-09-08T00:46:23;992.728;;;15.42;83.4
13058;BME280;6595;49.578;11.012;2023-09-08T00:48:24;992.740;;;15.39;83.2
13058;BME280;6595;49.578;11.012;2023-09-08T00:50:23;992.717;;;15.36;83.4
13058;BME280;6595;49.578;11.012;2023-09-08T00:52:24;992.763;;;15.39;83.3
13058;BME280;6595;49.578;11.012;2023-09-08T00:54:24;992.735;;;15.36;83.4
13058;BME280;6595;49.578;11.012;2023-09-08T00:56:24;992.654;;;15.33;83.3
13058;BME280;6595;49.578;11.012;2023-09-08T00:58:24;992.666;;;15.28;83.4
13058;BME280;6595;49.578;11.012;2023-09-08T01:00:23;992.676;;;15.29;83.4
13058;BME280;6595;49.578;11.012;2023-09-08T01:02:23;992.701;;;15.22;83.7
13058;BME280;6595;49.578;11.012;2023-09-08T01:04:24;992.758;;;15.18;83.8
13058;BME280;6595;49.578;11.012;2023-09-08T01:06:23;992.728;;;15.17;83.7
13058;BME280;6595;49.578;11.012;2023-09-08T01:08:23;992.722;;;15.12;83.7
13058;BME280;6595;49.578;11.012;2023-09-08T01:10:24;992.688;;;15.06;84.0
13058;BME280;6595;49.578;11.012;2023-09-08T01:12:24;992.751;;;15.03;84.2
13058;BME280;6595;49.578;11.012;2023-09-08T01:14:26;992.751;;;15.03;84.2
13058;BME280;6595;49.578;11.012;2023-09-08T01:16:24;992.639;;;15.01;84.2
13058;BME280;6595;49.578;11.012;2023-09-08T01:18:23;992.750;;;15.02;84.4
13058;BME280;6595;49.578;11.012;2023-09-08T01:20:30;992.735;;;14.99;84.0
13058;BME280;6595;49.578;11.012;2023-09-08T01:22:35;992.703;;;14.98;84.0
13058;BME280;6595;49.578;11.012;2023-09-08T01:24:37;992.806;;;14.92;83.9
13058;BME280;6595;49.578;11.012;2023-09-08T01:26:27;992.729;;;14.92;83.8
13058;BME280;6595;49.578;11.012;2023-09-08T01:28:24;992.768;;;14.87;83.8
13058;BME280;6595;49.578;11.012;2023-09-08T01:30:25;992.731;;;14.84;84.2
13058;BME280;6595;49.578;11.012;2023-09-08T01:32:24;992.731;;;14.84;84.2
13058;BME280;6595;49.578;11.012;2023-09-08T01:34:24;992.759;;;14.77;84.3
13058;BME280;6595;49.578;11.012;2023-09-08T01:36:24;992.708;;;14.77;84.5
13058;BME280;6595;49.578;11.012;2023-09-08T01:38:24;992.726;;;14.72;84.6
13058;BME280;6595;49.578;11.012;2023-09-08T01:40:23;992.805;;;14.68;84.7
13058;BME280;6595;49.578;11.012;2023-09-08T01:42:23;992.698;;;14.68;84.8
13058;BME280;6595;49.578;11.012;2023-09-08T01:44:23;992.685;;;14.67;84.6
13058;BME280;6595;49.578;11.012;2023-09-08T01:46:24;992.700;;;14.68;84.6
13058;BME280;6595;49.578;11.012;2023-09-08T01:48:24;992.762;;;14.63;84.5
13058;BME280;6595;49.578;11.012;2023-09-08T01:50:24;992.762;;;14.63;84.5
13058;BME280;6595;49.578;11.012;2023-09-08T01:52:24;992.682;;;14.60;84.5
13058;BME280;6595;49.578;11.012;2023-09-08T01:54:23;992.625;;;14.57;84.4
13058;BME280;6595;49.578;11.012;2023-09-08T01:56:23;992.637;;;14.55;84.7
13058;BME280;6595;49.578;11.012;2023-09-08T01:58:24;992.631;;;14.51;84.5
13058;BME280;6595;49.578;11.012;2023-09-08T02:00:24;992.594;;;14.49;84.7
13058;BME280;6595;49.578;11.012;2023-09-08T02:02:24;992.622;;;14.48;84.7
13058;BME280;6595;49.578;11.012;2023-09-08T02:04:23;992.611;;;14.49;84.5
13058;BME280;6595;49.578;11.012;2023-09-08T02:06:24;992.545;;;14.45;84.6
13058;BME280;6595;49.578;11.012;2023-09-08T02:08:23;992.562;;;14.37;84.6
13058;BME280;6595;49.578;11.012;2023-09-08T02:10:23;992.582;;;14.34;84.9
13058;BME280;6595;49.578;11.012;2023-09-08T02:12:23;992.565;;;14.30;84.9
13058;BME280;6595;49.578;11.012;2023-09-08T02:14:23;992.610;;;14.27;84.9
13058;BME280;6595;49.578;11.012;2023-09-08T02:16:23;992.567;;;14.23;84.9
13058;BME280;6595;49.578;11.012;2023-09-08T02:18:25;992.613;;;14.23;84.9
13058;BME280;6595;49.578;11.012;2023-09-08T02:20:24;992.555;;;14.20;84.9
13058;BME280;6595;49.578;11.012;2023-09-08T02:22:24;992.546;;;14.19;85.1
13058;BME280;6595;49.578;11.012;2023-09-08T02:24:23;992.552;;;14.14;84.9
13058;BME280;6595;49.578;11.012;2023-09-08T02:26:23;992.616;;;14.10;85.0
13058;BME280;6595;49.578;11.012;2023-09-08T02:28:23;992.616;;;14.10;85.0
13058;BME280;6595;49.578;11.012;2023-09-08T02:30:23;992.568;;;14.09;85.1
13058;BME280;6595;49.578;11.012;2023-09-08T02:32:24;992.720;;;14.04;85.0
13058;BME280;6595;49.578;11.012;2023-09-08T02:34:23;992.707;;;14.02;84.9
13058;BME280;6595;49.578;11.012;2023-09-08T02:36:23;992.677;;;13.96;85.2
13058;BME280;6595;49.578;11.012;2023-09-08T02:38:24;992.747;;;13.96;85.3
13058;BME280;6595;49.578;11.012;2023-09-08T02:40:24;992.728;;;13.93;85.3
13058;BME280;6595;49.578;11.012;2023-09-08T02:42:24;992.622;;;13.93;85.2
13058;BME280;6595;49.578;11.012;2023-09-08T02:44:23;992.708;;;13.90;85.2
13058;BME280;6595;49.578;11.012;2023-09-08T02:46:23;992.660;;;13.89;85.5
13058;BME280;6595;49.578;11.012;2023-09-08T02:48:24;992.633;;;13.83;85.9
13058;BME280;6595;49.578;11.012;2023-09-08T02:50:24;992.647;;;13.79;85.5
13058;BME280;6595;49.578;11.012;2023-09-08T02:52:24;992.680;;;13.80;85.4
13058;BME280;6595;49.578;11.012;2023-09-08T02:54:24;992.616;;;13.80;85.5
13058;BME280;6595;49.578;11.012;2023-09-08T02:56:23;992.630;;;13.72;85.6
13058;BME280;6595;49.578;11.012;2023-09-08T02:58:24;992.647;;;13.69;85.8
13058;BME280;6595;49.578;11.012;2023-09-08T03:00:24;992.652;;;13.68;85.6
13058;BME280;6595;49.578;11.012;2023-09-08T03:02:24;992.625;;;13.68;85.5
13058;BME280;6595;49.578;11.012;2023-09-08T03:04:24;992.623;;;13.63;85.7
13058;BME280;6595;49.578;11.012;2023-09-08T03:06:24;992.683;;;13.63;85.5
13058;BME280;6595;49.578;11.012;2023-09-08T03:08:23;992.570;;;13.62;85.4
13058;BME280;6595;49.578;11.012;2023-09-08T03:10:23;992.534;;;13.58;85.4
13058;BME280;6595;49.578;11.012;2023-09-08T03:12:23;992.578;;;13.49;85.8
13058;BME280;6595;49.578;11.012;2023-09-08T03:14:24;992.585;;;13.49;85.9
13058;BME280;6595;49.578;11.012;2023-09-08T03:16:24;992.559;;;13.55;85.7
13058;BME280;6595;49.578;11.012;2023-09-08T03:18:24;992.517;;;13.53;85.6
13058;BME280;6595;49.578;11.012;2023-09-08T03:20:24;992.541;;;13.48;85.5
13058;BME280;6595;49.578;11.012;2023-09-08T03:22:23;992.487;;;13.43;85.7
13058;BME280;6595;49.578;11.012;2023-09-08T03:24:23;992.423;;;13.41;85.8
13058;BME280;6595;49.578;11.012;2023-09-08T03:26:23;992.466;;;13.39;85.8
13058;BME280;6595;49.578;11.012;2023-09-08T03:28:23;992.487;;;13.39;85.9
13058;BME280;6595;49.578;11.012;2023-09-08T03:30:24;992.514;;;13.36;85.7
13058;BME280;6595;49.578;11.012;2023-09-08T03:32:23;992.451;;;13.35;85.6
13058;BME280;6595;49.578;11.012;2023-09-08T03:34:24;992.456;;;13.36;85.6
13058;BME280;6595;49.578;11.012;2023-09-08T03:36:23;992.441;;;13.29;85.6
13058;BME280;6595;49.578;11.012;2023-09-08T03:38:23;992.441;;;13.29;85.6
13058;BME280;6595;49.578;11.012;2023-09-08T03:40:23;992.474;;;13.16;86.0
13058;BME280;6595;49.578;11.012;2023-09-08T03:42:23;992.400;;;13.15;86.5
13058;BME280;6595;49.578;11.012;2023-09-08T03:44:23;992.430;;;13.16;86.4
13058;BME280;6595;49.578;11.012;2023-09-08T03:46:23;992.418;;;13.11;86.5
13058;BME280;6595;49.578;11.012;2023-09-08T03:48:23;992.407;;;13.08;86.4
13058;BME280;6595;49.578;11.012;2023-09-08T03:50:24;992.362;;;13.09;86.3
13058;BME280;6595;49.578;11.012;2023-09-08T03:52:24;992.347;;;13.12;86.2
13058;BME280;6595;49.578;11.012;2023-09-08T03:54:24;992.371;;;13.04;86.0
13058;BME280;6595;49.578;11.012;2023-09-08T03:56:23;992.391;;;12.98;86.3
13058;BME280;6595;49.578;11.012;2023-09-08T03:58:23;992.429;;;12.95;86.2
13058;BME280;6595;49.578;11.012;2023-09-08T04:00:23;992.400;;;12.96;86.5
13058;BME280;6595;49.578;11.012;2023-09-08T04:02:24;992.367;;;12.98;86.4
13058;BME280;6595;49.578;11.012;2023-09-08T04:04:24;992.440;;;12.92;86.4
13058;BME280;6595;49.578;11.012;2023-09-08T04:06:23;992.440;;;12.92;86.4
13058;BME280;6595;49.578;11.012;2023-09-08T04:08:23;992.329;;;12.81;86.8
13058;BME280;6595;49.578;11.012;2023-09-08T04:10:23;992.449;;;12.80;86.9
13058;BME280;6595;49.578;11.012;2023-09-08T04:12:24;992.360;;;12.81;86.7
13058;BME280;6595;49.578;11.012;2023-09-08T04:14:24;992.379;;;12.78;86.7
13058;BME280;6595;49.578;11.012;2023-09-08T04:16:26;992.443;;;12.77;86.9
13058;BME280;6595;49.578;11.012;2023-09-08T04:18:23;992.390;;;12.81;86.6
13058;BME280;6595;49.578;11.012;2023-09-08T04:20:24;992.363;;;12.77;86.7
13058;BME280;6595;49.578;11.012;2023-09-08T04:22:23;992.396;;;12.75;86.7
13058;BME280;6595;49.578;11.012;2023-09-08T04:24:23;992.409;;;12.73;86.6
13058;BME280;6595;49.578;11.012;2023-09-08T04:26:23;992.411;;;12.68;86.9
13058;BME280;6595;49.578;11.012;2023-09-08T04:28:24;992.393;;;12.65;86.9
13058;BME280;6595;49.578;11.012;2023-09-08T04:30:24;992.383;;;12.58;87.3
13058;BME280;6595;49.578;11.012;2023-09-08T04:32:24;992.416;;;12.52;87.3
13058;BME280;6595;49.578;11.012;2023-09-08T04:34:23;992.392;;;12.51;87.4
13058;BME280;6595;49.578;11.012;2023-09-08T04:36:23;992.460;;;12.48;87.6
13058;BME280;6595;49.578;11.012;2023-09-08T04:38:23;992.369;;;12.50;87.5
13058;BME280;6595;49.578;11.012;2023-09-08T04:40:23;992.416;;;12.50;87.5
13058;BME280;6595;49.578;11.012;2023-09-08T04:42:23;992.451;;;12.50;87.2
13058;BME280;6595;49.578;11.012;2023-09-08T04:44:23;992.462;;;12.50;87.1
13058;BME280;6595;49.578;11.012;2023-09-08T04:46:24;992.462;;;12.50;87.2
13058;BME280;6595;49.578;11.012;2023-09-08T04:48:24;992.418;;;12.48;87.2
13058;BME280;6595;49.578;11.012;2023-09-08T04:50:24;992.408;;;12.48;87.4
13058;BME280;6595;49.578;11.012;2023-09-08T04:52:23;992.438;;;12.50;87.4
13058;BME280;6595;49.578;11.012;2023-09-08T04:54:23;992.462;;;12.51;87.4
13058;BME280;6595;49.578;11.012;2023-09-08T04:56:23;992.462;;;12.54;86.9
13058;BME280;6595;49.578;11.012;2023-09-08T04:58:23;992.530;;;12.54;86.8
13058;BME280;6595;49.578;11.012;2023-09-08T05:00:24;992.486;;;12.58;86.6
13058;BME280;6595;49.578;11.012;2023-09-08T05:02:23;992.529;;;12.54;86.8
13058;BME280;6595;49.578;11.012;2023-09-08T05:04:24;992.518;;;12.57;86.7
13058;BME280;6595;49.578;11.012;2023-09-08T05:06:24;992.462;;;12.55;86.8
13058;BME280;6595;49.578;11.012;2023-09-08T05:08:23;992.533;;;12.61;86.9
13058;BME280;6595;49.578;11.012;2023-09-08T05:10:23;992.516;;;12.60;86.7
13058;BME280;6595;49.578;11.012;2023-09-08T05:12:23;992.481;;;12.64;86.6
13058;BME280;6595;49.578;11.012;2023-09-08T05:14:23;992.515;;;12.63;86.6
13058;BME280;6595;49.578;11.012;2023-09-08T05:16:23;992.489;;;12.61;86.4
13058;BME280;6595;49.578;11.012;2023-09-08T05:18:23;992.466;;;12.67;86.6
13058;BME280;6595;49.578;11.012;2023-09-08T05:20:24;992.465;;;12.70;86.5
13058;BME280;6595;49.578;11.012;2023-09-08T05:22:23;992.482;;;12.68;86.2
13058;BME280;6595;49.578;11.012;2023-09-08T05:24:23;992.554;;;12.70;86.1
13058;BME280;6595;49.578;11.012;2023-09-08T05:26:24;992.494;;;12.77;86.2
13058;BME280;6595;49.578;11.012;2023-09-08T05:28:24;992.586;;;12.81;86.1
13058;BME280;6595;49.578;11.012;2023-09-08T05:30:23;992.592;;;12.84;86.1
13058;BME280;6595;49.578;11.012;2023-09-08T05:32:23;992.628;;;12.88;86.0
13058;BME280;6595;49.578;11.012;2023-09-08T05:34:23;992.588;;;12.94;86.0
13058;BME280;6595;49.578;11.012;2023-09-08T05:36:24;992.539;;;12.95;85.9
13058;BME280;6595;49.578;11.012;2023-09-08T05:38:24;992.669;;;13.01;86.0
13058;BME280;6595;49.578;11.012;2023-09-08T05:40:24;992.622;;;13.04;86.0
13058;BME280;6595;49.578;11.012;2023-09-08T05:42:24;992.669;;;13.05;86.0
13058;BME280;6595;49.578;11.012;2023-09-08T05:44:23;992.718;;;13.18;85.8
13058;BME280;6595;49.578;11.012;2023-09-08T05:46:24;992.734;;;13.23;85.9
13058;BME280;6595;49.578;11.012;2023-09-08T05:48:24;992.808;;;13.28;85.7
13058;BME280;6595;49.578;11.012;2023-09-08T05:50:24;992.783;;;13.42;85.4
13058;BME280;6595;49.578;11.012;2023-09-08T05:52:23;992.794;;;13.48;85.3
13058;BME280;6595;49.578;11.012;2023-09-08T05:54:23;992.780;;;13.60;84.9
13058;BME280;6595;49.578;11.012;2023-09-08T05:56:26;992.872;;;13.66;84.7
13058;BME280;6595;49.578;11.012;2023-09-08T05:58:24;992.820;;;13.73;84.6
13058;BME280;6595;49.578;11.012;2023-09-08T06:00:24;992.808;;;13.82;84.5
13058;BME280;6595;49.578;11.012;2023-09-08T06:02:24;992.919;;;13.84;84.6
13058;BME280;6595;49.578;11.012;2023-09-08T06:04:23;992.833;;;13.97;84.6
13058;BME280;6595;49.578;11.012;2023-09-08T06:06:24;992.769;;;14.04;84.3
13058;BME280;6595;49.578;11.012;2023-09-08T06:08:24;992.901;;;14.13;84.4
13058;BME280;6595;49.578;11.012;2023-09-08T06:10:24;992.798;;;14.24;84.0
13058;BME280;6595;49.578;11.012;2023-09-08T06:12:23;992.729;;;14.30;84.1
13058;BME280;6595;49.578;11.012;2023-09-08T06:14:23;992.880;;;14.35;83.7
13058;BME280;6595;49.578;11.012;2023-09-08T06:16:23;992.780;;;14.51;83.0
13058;BME280;6595;49.578;11.012;2023-09-08T06:18:25;992.785;;;14.67;83.1
13058;BME280;6595;49.578;11.012;2023-09-08T06:20:23;992.860;;;14.87;83.0
13058;BME280;6595;49.578;11.012;2023-09-08T06:22:24;992.859;;;14.88;82.8
13058;BME280;6595;49.578;11.012;2023-09-08T06:24:23;992.834;;;15.13;82.1
13058;BME280;6595;49.578;11.012;2023-09-08T06:26:23;992.869;;;15.23;82.0
13058;BME280;6595;49.578;11.012;2023-09-08T06:28:23;992.864;;;15.50;81.1
13058;BME280;6595;49.578;11.012;2023-09-08T06:30:24;992.938;;;15.60;81.1
13058;BME280;6595;49.578;11.012;2023-09-08T06:32:24;992.918;;;15.76;80.4
13058;BME280;6595;49.578;11.012;2023-09-08T06:34:23;992.917;;;15.83;80.2
13058;BME280;6595;49.578;11.012;2023-09-08T06:36:24;992.884;;;16.04;79.4
13058;BME280;6595;49.578;11.012;2023-09-08T06:38:23;992.932;;;16.17;79.1
13058;BME280;6595;49.578;11.012;2023-09-08T06:40:23;992.889;;;16.31;78.3
13058;BME280;6595;49.578;11.012;2023-09-08T06:42:23;992.951;;;16.41;77.3
13058;BME280;6595;49.578;11.012;2023-09-08T06:44:23;992.907;;;16.47;77.2
13058;BME280;6595;49.578;11.012;2023-09-08T06:46:24;992.984;;;16.67;76.7
13058;BME280;6595;49.578;11.012;2023-09-08T06:48:23;992.988;;;16.75;75.7
13058;BME280;6595;49.578;11.012;2023-09-08T06:50:23;992.999;;;16.81;75.8
13058;BME280;6595;49.578;11.012;2023-09-08T06:52:24;993.031;;;16.95;75.5
13058;BME280;6595;49.578;11.012;2023-09-08T06:54:23;992.974;;;17.01;75.3
13058;BME280;6595;49.578;11.012;2023-09-08T06:56:23;993.076;;;17.16;74.3
13058;BME280;6595;49.578;11.012;2023-09-08T06:58:23;993.005;;;17.32;74.1
13058;BME280;6595;49.578;11.012;2023-09-08T07:00:23;993.066;;;17.40;73.7
13058;BME280;6595;49.578;11.012;2023-09-08T07:02:23;993.134;;;17.47;73.2
13058;BME280;6595;49.578;11.012;2023-09-08T07:04:24;993.052;;;17.50;73.0
13058;BME280;6595;49.578;11.012;2023-09-08T07:06:23;993.055;;;17.67;72.5
13058;BME280;6595;49.578;11.012;2023-09-08T07:08:23;993.147;;;17.79;71.9
13058;BME280;6595;49.578;11.012;2023-09-08T07:10:24;993.169;;;17.86;72.1
13058;BME280;6595;49.578;11.012;2023-09-08T07:12:23;993.126;;;17.90;72.5
13058;BME280;6595;49.578;11.012;2023-09-08T07:14:23;993.212;;;18.01;71.7
13058;BME280;6595;49.578;11.012;2023-09-08T07:16:23;993.214;;;18.14;71.8
13058;BME280;6595;49.578;11.012;2023-09-08T07:18:24;993.216;;;18.24;71.6
13058;BME280;6595;49.578;11.012;2023-09-08T07:20:23;993.277;;;18.35;71.2
13058;BME280;6595;49.578;11.012;2023-09-08T07:22:23;993.153;;;18.43;71.1
13058;BME280;6595;49.578;11.012;2023-09-08T07:24:23;993.187;;;18.55;70.9
13058;BME280;6595;49.578;11.012;2023-09-08T07:26:23;993.146;;;18.55;70.6
13058;BME280;6595;49.578;11.012;2023-09-08T07:28:24;993.146;;;18.55;70.6
13058;BME280;6595;49.578;11.012;2023-09-08T07:30:24;993.258;;;18.78;68.9
13058;BME280;6595;49.578;11.012;2023-09-08T07:32:23;993.166;;;18.84;68.5
13058;BME280;6595;49.578;11.012;2023-09-08T07:34:24;993.193;;;18.98;68.2
13058;BME280;6595;49.578;11.012;2023-09-08T07:36:24;993.183;;;19.10;68.5
13058;BME280;6595;49.578;11.012;2023-09-08T07:38:23;993.161;;;19.16;68.6
13058;BME280;6595;49.578;11.012;2023-09-08T07:40:23;993.208;;;19.23;69.4
13058;BME280;6595;49.578;11.012;2023-09-08T07:42:23;993.254;;;19.30;68.3
13058;BME280;6595;49.578;11.012;2023-09-08T07:44:23;993.179;;;19.39;69.1
13058;BME280;6595;49.578;11.012;2023-09-08T07:46:23;993.236;;;19.49;67.8
13058;BME280;6595;49.578;11.012;2023-09-08T07:48:24;993.115;;;19.59;67.9
13058;BME280;6595;49.578;11.012;2023-09-08T07:50:26;993.178;;;19.66;68.2
13058;BME280;6595;49.578;11.012;2023-09-08T07:52:23;993.117;;;19.77;67.7
13058;BME280;6595;49.578;11.012;2023-09-08T07:54:23;993.167;;;19.80;67.9
13058;BME280;6595;49.578;11.012;2023-09-08T07:56:23;993.215;;;19.83;67.1
13058;BME280;6595;49.578;11.012;2023-09-08T07:58:24;993.207;;;19.93;67.1
13058;BME280;6595;49.578;11.012;2023-09-08T08:00:23;993.192;;;20.10;66.5
13058;BME280;6595;49.578;11.012;2023-09-08T08:02:23;993.192;;;20.10;66.5
13058;BME280;6595;49.578;11.012;2023-09-08T08:04:23;993.231;;;20.29;66.1
13058;BME280;6595;49.578;11.012;2023-09-08T08:06:24;993.204;;;20.44;64.9
13058;BME280;6595;49.578;11.012;2023-09-08T08:08:23;993.261;;;20.49;64.1
13058;BME280;6595;49.578;11.012;2023-09-08T08:10:24;993.265;;;20.61;64.6
13058;BME280;6595;49.578;11.012;2023-09-08T08:12:23;993.265;;;20.61;64.6
13058;BME280;6595;49.578;11.012;2023-09-08T08:14:23;993.304;;;20.82;63.5
13058;BME280;6595;49.578;11.012;2023-09-08T08:16:23;993.281;;;20.82;63.0
13058;BME280;6595;49.578;11.012;2023-09-08T08:18:23;993.214;;;20.92;62.4
13058;BME280;6595;49.578;11.012;2023-09-08T08:20:24;993.182;;;21.05;63.7
13058;BME280;6595;49.578;11.012;2023-09-08T08:22:23;993.290;;;21.12;63.5
13058;BME280;6595;49.578;11.012;2023-09-08T08:24:23;993.236;;;21.19;63.4
13058;BME280;6595;49.578;11.012;2023-09-08T08:26:23;993.218;;;21.30;61.5
13058;BME280;6595;49.578;11.012;2023-09-08T08:28:23;993.214;;;21.35;60.8
13058;BME280;6595;49.578;11.012;2023-09-08T08:30:24;993.293;;;21.40;61.0
13058;BME280;6595;49.578;11.012;2023-09-08T08:32:24;993.300;;;21.53;61.5
13058;BME280;6595;49.578;11.012;2023-09-08T08:34:23;993.300;;;21.53;61.5
13058;BME280;6595;49.578;11.012;2023-09-08T08:36:24;993.204;;;21.67;60.9
13058;BME280;6595;49.578;11.012;2023-09-08T08:38:23;993.241;;;21.76;62.2
13058;BME280;6595;49.578;11.012;2023-09-08T08:40:23;993.236;;;21.88;60.0
13058;BME280;6595;49.578;11.012;2023-09-08T08:42:30;993.280;;;21.94;60.9
13058;BME280;6595;49.578;11.012;2023-09-08T08:44:24;993.304;;;22.01;60.7
13058;BME280;6595;49.578;11.012;2023-09-08T08:46:24;993.299;;;22.07;59.6
13058;BME280;6595;49.578;11.012;2023-09-08T08:48:25;993.316;;;22.12;58.9
13058;BME280;6595;49.578;11.012;2023-09-08T08:50:24;993.303;;;22.25;57.9
13058;BME280;6595;49.578;11.012;2023-09-08T08:52:24;993.294;;;22.30;58.1
13058;BME280;6595;49.578;11.012;2023-09-08T08:54:24;993.280;;;22.35;57.6
13058;BME280;6595;49.578;11.012;2023-09-08T08:56:24;993.267;;;22.42;58.5
13058;BME280;6595;49.578;11.012;2023-09-08T08:58:23;993.267;;;22.52;57.5
13058;BME280;6595;49.578;11.012;2023-09-08T09:00:23;993.250;;;22.61;57.6
13058;BME280;6595;49.578;11.012;2023-09-08T09:02:25;993.260;;;22.61;56.6
13058;BME280;6595;49.578;11.012;2023-09-08T09:04:25;993.257;;;22.74;57.7
13058;BME280;6595;49.578;11.012;2023-09-08T09:06:24;993.211;;;22.86;55.3
13058;BME280;6595;49.578;11.012;2023-09-08T09:08:24;993.134;;;23.01;53.6
13058;BME280;6595;49.578;11.012;2023-09-08T09:10:23;993.189;;;23.10;53.6
13058;BME280;6595;49.578;11.012;2023-09-08T09:12:23;993.165;;;23.17;53.7
13058;BME280;6595;49.578;11.012;2023-09-08T09:14:23;993.147;;;23.26;53.8
13058;BME280;6595;49.578;11.012;2023-09-08T09:16:23;993.084;;;23.32;54.7
13058;BME280;6595;49.578;11.012;2023-09-08T09:18:23;993.157;;;23.36;52.5
13058;BME280;6595;49.578;11.012;2023-09-08T09:20:24;993.177;;;23.34;52.8
13058;BME280;6595;49.578;11.012;2023-09-08T09:22:36;993.155;;;23.56;51.7
13058;BME280;6595;49.578;11.012;2023-09-08T09:24:31;993.123;;;23.57;51.6
13058;BME280;6595;49.578;11.012;2023-09-08T09:26:24;993.125;;;23.69;51.1
13058;BME280;6595;49.578;11.012;2023-09-08T09:28:23;993.186;;;23.69;52.3
13058;BME280;6595;49.578;11.012;2023-09-08T09:30:24;993.188;;;23.73;51.9
13058;BME280;6595;49.578;11.012;2023-09-08T09:32:24;993.132;;;23.76;51.1
13058;BME280;6595;49.578;11.012;2023-09-08T09:34:24;993.112;;;23.81;51.9
13058;BME280;6595;49.578;11.012;2023-09-08T09:36:24;993.092;;;23.83;51.6
13058;BME280;6595;49.578;11.012;2023-09-08T09:38:27;993.134;;;24.00;50.8
13058;BME280;6595;49.578;11.012;2023-09-08T09:40:23;993.112;;;24.08;52.2
13058;BME280;6595;49.578;11.012;2023-09-08T09:42:23;993.093;;;24.04;51.9
13058;BME280;6595;49.578;11.012;2023-09-08T09:44:24;993.068;;;24.08;50.8
13058;BME280;6595;49.578;11.012;2023-09-08T09:46:23;993.099;;;24.11;51.9
13058;BME280;6595;49.578;11.012;2023-09-08T09:48:24;993.070;;;24.11;50.9
13058;BME280;6595;49.578;11.012;2023-09-08T09:50:28;993.068;;;24.17;50.7
13058;BME280;6595;49.578;11.012;2023-09-08T09:52:24;993.037;;;24.21;50.7
13058;BME280;6595;49.578;11.012;2023-09-08T09:54:23;993.054;;;24.27;50.5
13058;BME280;6595;49.578;11.012;2023-09-08T09:56:24;993.093;;;24.31;50.0
13058;BME280;6595;49.578;11.012;2023-09-08T09:58:24;993.050;;;24.41;49.9
13058;BME280;6595;49.578;11.012;2023-09-08T10:00:24;993.040;;;24.47;50.3
13058;BME280;6595;49.578;11.012;2023-09-08T10:02:24;993.017;;;24.59;50.1
13058;BME280;6595;49.578;11.012;2023-09-08T10:04:23;993.069;;;24.75;50.0
13058;BME280;6595;49.578;11.012;2023-09-08T10:06:25;993.103;;;24.77;49.7
13058;BME280;6595;49.578;11.012;2023-09-08T10:08:24;993.069;;;24.75;48.4
13058;BME280;6595;49.578;11.012;2023-09-08T10:10:26;993.052;;;24.82;49.2
13058;BME280;6595;49.578;11.012;2023-09-08T10:12:24;993.062;;;24.92;48.7
13058;BME280;6595;49.578;11.012;2023-09-08T10:14:24;993.042;;;24.98;48.5
13058;BME280;6595;49.578;11.012;2023-09-08T10:16:26;993.029;;;25.09;47.3
13058;BME280;6595;49.578;11.012;2023-09-08T10:18:24;993.012;;;25.18;46.6
13058;BME280;6595;49.578;11.012;2023-09-08T10:20:24;993.041;;;25.25;48.8
13058;BME280;6595;49.578;11.012;2023-09-08T10:22:26;993.063;;;25.32;48.1
13058;BME280;6595;49.578;11.012;2023-09-08T10:24:26;993.012;;;25.50;48.0
13058;BME280;6595;49.578;11.012;2023-09-08T10:26:27;993.032;;;25.56;46.6
13058;BME280;6595;49.578;11.012;2023-09-08T10:28:23;993.046;;;25.63;45.9
13058;BME280;6595;49.578;11.012;2023-09-08T10:30:23;993.030;;;25.69;46.5
13058;BME280;6595;49.578;11.012;2023-09-08T10:32:24;993.026;;;25.76;46.7
13058;BME280;6595;49.578;11.012;2023-09-08T10:34:25;992.956;;;25.84;46.8
13058;BME280;6595;49.578;11.012;2023-09-08T10:36:24;992.937;;;25.90;46.9
13058;BME280;6595;49.578;11.012;2023-09-08T10:38:24;992.914;;;26.01;46.7
13058;BME280;6595;49.578;11.012;2023-09-08T10:40:24;992.927;;;25.97;46.4
13058;BME280;6595;49.578;11.012;2023-09-08T10:42:25;992.924;;;26.11;45.4
13058;BME280;6595;49.578;11.012;2023-09-08T10:44:24;992.875;;;26.31;45.3
13058;BME280;6595;49.578;11.012;2023-09-08T10:46:26;992.956;;;26.32;44.8
13058;BME280;6595;49.578;11.012;2023-09-08T10:48:23;993.018;;;26.47;45.0
13058;BME280;6595;49.578;11.012;2023-09-08T10:50:32;992.873;;;26.52;44.7
13058;BME280;6595;49.578;11.012;2023-09-08T10:52:24;992.904;;;26.69;44.1